Terminal Aerodrome Forecast
Issued by NWS

Home | Current Version | Previous Version | Text Only | Print | Product List | Glossary On
Versions: 1 2 3 4 5 6 7 8 9 10 11 12 13 14 15 16 17 18 19 20
170
FTUS46 KMTR 192334
TAFSNS
TAF
KSNS 192334Z 2000/2024 14015G22KT P6SM -RA OVC050
     FM200600 17020G28KT P6SM -RA OVC030 WS015/22040KT
     FM201300 19015G20KT P6SM VCSH OVC040
     FM202100 19023G29KT P6SM VCSH BKN050=

USA.gov is the U.S. government's official web portal to all federal, state and local government web resources and services.